createdAt,value
2019-05-22T00:02:20.826Z,101249.55
2019-05-22T00:08:11.797Z,101245.97
2019-05-22T00:10:57.540Z,101219.31
2019-05-22T00:13:42.403Z,101218.38
2019-05-22T00:16:27.774Z,101239.34
2019-05-22T00:19:14.109Z,101241.77
2019-05-22T00:22:01.782Z,101250.01
2019-05-22T00:24:47.509Z,101228.77
2019-05-22T00:27:32.481Z,101230.39
2019-05-22T00:30:18.079Z,101261.02
2019-05-22T00:33:04.123Z,101241.45
2019-05-22T00:35:47.811Z,101262.81
2019-05-22T00:38:32.550Z,101240.98
2019-05-22T00:41:18.396Z,101234.86
2019-05-22T00:44:04.396Z,101261.92
2019-05-22T00:46:50.972Z,101240.45
2019-05-22T00:49:36.189Z,101241.66
2019-05-22T00:52:41.775Z,101232.72
2019-05-22T00:55:46.170Z,101262.91
2019-05-22T00:58:55.125Z,101240.70
2019-05-22T01:01:45.737Z,101241.91
2019-05-22T01:04:34.365Z,101269.93
2019-05-22T01:07:18.126Z,101247.23
2019-05-22T01:10:04.489Z,101250.08
2019-05-22T01:12:51.225Z,101253.45
2019-05-22T01:18:41.265Z,101261.92
2019-05-22T01:21:26.486Z,101279.80
2019-05-22T01:24:11.921Z,101292.50
2019-05-22T01:26:58.597Z,101268.06
2019-05-22T01:29:43.819Z,101267.29
2019-05-22T01:32:47.326Z,101295.44
2019-05-22T01:38:33.992Z,101266.27
2019-05-22T01:41:21.393Z,101298.77
2019-05-22T01:44:07.377Z,101268.59
2019-05-22T01:46:51.799Z,101268.42
2019-05-22T01:49:37.817Z,101297.08
2019-05-22T01:52:23.152Z,101273.95
2019-05-22T01:55:06.946Z,101303.23
2019-05-22T01:57:53.333Z,101277.34
2019-05-22T02:00:37.400Z,101286.05
2019-05-22T02:03:24.570Z,101285.31
2019-05-22T02:06:10.066Z,101287.94
2019-05-22T02:12:02.987Z,101292.47
2019-05-22T02:14:46.757Z,101314.09
2019-05-22T02:17:33.272Z,101318.11
2019-05-22T02:20:18.414Z,101293.55
2019-05-22T02:23:02.784Z,101285.88
2019-05-22T02:25:47.205Z,101320.62
2019-05-22T02:28:30.948Z,101322.59
2019-05-22T02:31:17.443Z,101298.39
2019-05-22T02:34:01.579Z,101296.19
2019-05-22T02:36:45.957Z,101299.73
2019-05-22T02:39:32.816Z,101328.47
2019-05-22T02:42:19.193Z,101301.03
2019-05-22T02:45:05.154Z,101305.78
2019-05-22T02:47:50.516Z,101317.41
2019-05-22T02:50:35.224Z,101325.58
2019-05-22T02:53:19.619Z,101300.58
2019-05-22T02:56:04.082Z,101300.02
2019-05-22T02:58:47.849Z,101324.17
2019-05-22T03:01:31.805Z,101302.14
2019-05-22T03:04:18.419Z,101327.24
2019-05-22T03:07:03.542Z,101312.77
2019-05-22T03:09:47.345Z,101302.51
2019-05-22T03:12:34.910Z,101303.84
2019-05-22T03:15:19.978Z,101307.95
2019-05-22T03:18:05.608Z,101312.80
2019-05-22T03:20:49.848Z,101312.94
2019-05-22T03:23:35.343Z,101325.98
2019-05-22T03:26:20.072Z,101334.83
2019-05-22T03:29:05.832Z,101328.17
2019-05-22T03:31:52.886Z,101330.84
2019-05-22T03:37:22.817Z,101357.92
2019-05-22T03:40:08.491Z,101357.48
2019-05-22T03:42:52.921Z,101357.38
2019-05-22T03:45:37.401Z,101346.36
2019-05-22T03:48:22.779Z,101367.65
2019-05-22T03:51:09.962Z,101378.45
2019-05-22T03:53:54.230Z,101382.39
2019-05-22T03:56:40.460Z,101381.41
2019-05-22T03:59:24.730Z,101358.17
2019-05-22T04:02:10.185Z,101356.11
2019-05-22T04:04:55.263Z,101375.27
2019-05-22T04:07:39.723Z,101376.63
2019-05-22T04:10:24.126Z,101374.70
2019-05-22T04:13:07.990Z,101407.04
2019-05-22T04:15:52.379Z,101398.48
2019-05-22T04:18:37.500Z,101381.28
2019-05-22T04:21:21.563Z,101390.39
2019-05-22T04:24:05.942Z,101391.92
2019-05-22T04:26:50.374Z,101417.41
2019-05-22T04:29:35.427Z,101398.92
2019-05-22T04:35:25.657Z,101399.61
2019-05-22T04:38:10.402Z,101425.97
2019-05-22T04:40:57.068Z,101403.44
2019-05-22T04:43:41.056Z,101414.28
2019-05-22T04:46:24.896Z,101432.78
2019-05-22T04:49:09.232Z,101411.81
2019-05-22T04:51:54.836Z,101418.16
2019-05-22T04:54:39.125Z,101425.70
2019-05-22T04:57:23.181Z,101418.06
2019-05-22T05:00:08.496Z,101424.61
2019-05-22T05:02:54.667Z,101435.66
2019-05-22T05:05:41.134Z,101452.05
2019-05-22T05:08:25.457Z,101450.58
2019-05-22T05:11:11.436Z,101448.29
2019-05-22T05:13:56.261Z,101449.46
2019-05-22T05:16:42.196Z,101433.25
2019-05-22T05:19:27.290Z,101468.56
2019-05-22T05:25:18.066Z,101450.81
2019-05-22T05:28:02.937Z,101448.91
2019-05-22T05:30:48.598Z,101470.31
2019-05-22T05:33:33.822Z,101469.62
2019-05-22T05:36:20.697Z,101469.45
2019-05-22T05:39:07.406Z,101467.87
2019-05-22T05:41:52.339Z,101470.13
2019-05-22T05:44:36.893Z,101473.20
2019-05-22T05:47:24.977Z,101463.36
2019-05-22T05:50:16.584Z,101484.36
2019-05-22T05:56:30.584Z,101460.77
2019-05-22T05:59:15.815Z,101468.61
2019-05-22T06:02:01.470Z,101495.14
2019-05-22T06:05:13.576Z,101501.83
2019-05-22T06:07:57.409Z,101478.82
2019-05-22T06:11:02.209Z,101490.28
2019-05-22T06:13:47.062Z,101489.17
2019-05-22T06:16:54.457Z,101484.73
2019-05-22T06:19:41.245Z,101487.89
2019-05-22T06:22:25.432Z,101489.78
2019-05-22T06:25:10.928Z,101519.36
2019-05-22T06:27:58.278Z,101502.20
2019-05-22T06:30:49.665Z,101521.22
2019-05-22T06:33:34.870Z,101500.89
2019-05-22T06:36:21.593Z,101524.95
2019-05-22T06:42:24.337Z,101526.52
2019-05-22T06:45:08.625Z,101506.91
2019-05-22T06:47:53.477Z,101516.89
2019-05-22T06:50:38.302Z,101539.18
2019-05-22T06:53:22.753Z,101538.11
2019-05-22T06:56:06.819Z,101515.69
2019-05-22T06:58:50.806Z,101521.27
2019-05-22T07:01:35.288Z,101518.87
2019-05-22T07:04:19.145Z,101513.59
2019-05-22T07:07:04.240Z,101522.72
2019-05-22T07:09:48.409Z,101527.41
2019-05-22T07:12:35.442Z,101541.25
2019-05-22T07:18:26.673Z,101536.56
2019-05-22T07:21:11.534Z,101543.66
2019-05-22T07:23:55.801Z,101544.21
2019-05-22T07:29:44.181Z,101560.55
2019-05-22T07:32:31.122Z,101542.53
2019-05-22T07:35:15.864Z,101549.12
2019-05-22T07:37:59.910Z,101545.63
2019-05-22T07:40:43.996Z,101548.44
2019-05-22T07:43:28.267Z,101543.06
2019-05-22T07:46:16.126Z,101569.37
2019-05-22T07:49:00.161Z,101550.34
2019-05-22T07:51:54.029Z,101558.10
2019-05-22T07:54:30.387Z,101554.97
2019-05-22T07:57:15.902Z,101560.28
2019-05-22T08:00:00.821Z,101579.34
2019-05-22T08:02:44.967Z,101587.05
2019-05-22T08:05:31.303Z,101561.34
2019-05-22T08:08:18.754Z,101590.34
2019-05-22T08:11:02.085Z,101576.24
2019-05-22T08:13:46.579Z,101578.10
2019-05-22T08:16:30.659Z,101587.08
2019-05-22T08:19:15.088Z,101609.44
2019-05-22T08:22:07.132Z,101604.97
2019-05-22T08:24:44.869Z,101607.97
2019-05-22T08:27:33.022Z,101590.02
2019-05-22T08:30:17.598Z,101589.52
2019-05-22T08:33:02.308Z,101619.31
2019-05-22T08:35:47.043Z,101595.83
2019-05-22T08:38:32.763Z,101630.78
2019-05-22T08:41:17.896Z,101615.64
2019-05-22T08:44:16.150Z,101613.95
2019-05-22T08:46:48.204Z,101611.90
2019-05-22T08:49:34.385Z,101626.83
2019-05-22T08:52:23.404Z,101643.14
2019-05-22T08:55:06.072Z,101651.48
2019-05-22T08:57:50.711Z,101651.33
2019-05-22T09:00:37.051Z,101629.61
2019-05-22T09:03:21.745Z,101630.02
2019-05-22T09:06:05.941Z,101657.51
2019-05-22T09:08:50.033Z,101638.33
2019-05-22T09:11:33.638Z,101652.78
2019-05-22T09:14:17.220Z,101641.47
2019-05-22T09:17:00.990Z,101676.89
2019-05-22T09:19:45.433Z,101653.87
2019-05-22T09:22:40.200Z,101678.02
2019-05-22T09:25:16.539Z,101662.25
2019-05-22T09:28:02.261Z,101661.55
2019-05-22T09:30:46.109Z,101666.73
2019-05-22T09:33:32.571Z,101670.08
2019-05-22T09:36:18.385Z,101689.50
2019-05-22T09:39:02.264Z,101687.08
2019-05-22T09:41:46.530Z,101694.00
2019-05-22T09:44:30.584Z,101692.70
2019-05-22T09:47:16.336Z,101672.47
2019-05-22T09:50:01.496Z,101676.73
2019-05-22T09:52:57.161Z,101674.34
2019-05-22T09:55:32.973Z,101680.70
2019-05-22T09:58:19.461Z,101704.19
2019-05-22T10:01:11.298Z,101680.30
2019-05-22T10:03:51.306Z,101680.50
2019-05-22T10:06:35.875Z,101687.53
2019-05-22T10:09:21.927Z,101705.16
2019-05-22T10:12:05.957Z,101714.80
2019-05-22T10:14:51.266Z,101690.83
2019-05-22T10:17:35.058Z,101696.04
2019-05-22T10:20:20.370Z,101694.01
2019-05-22T10:23:15.732Z,101704.02
2019-05-22T10:25:54.914Z,101723.91
2019-05-22T10:28:39.294Z,101724.75
2019-05-22T10:31:23.485Z,101704.31
2019-05-22T10:34:07.310Z,101702.48
2019-05-22T10:36:51.225Z,101703.55
2019-05-22T10:39:36.954Z,101723.02
2019-05-22T10:42:21.190Z,101731.09
2019-05-22T10:45:05.621Z,101714.25
2019-05-22T10:47:50.890Z,101745.16
2019-05-22T10:50:35.427Z,101720.41
2019-05-22T10:53:32.841Z,101745.37
2019-05-22T10:56:06.512Z,101751.97
2019-05-22T10:58:54.380Z,101747.08
2019-05-22T11:01:40.284Z,101750.09
2019-05-22T11:04:24.688Z,101725.73
2019-05-22T11:07:13.367Z,101750.55
2019-05-22T11:09:58.026Z,101758.05
2019-05-22T11:12:47.802Z,101754.92
2019-05-22T11:15:32.006Z,101752.51
2019-05-22T11:18:17.760Z,101735.39
2019-05-22T11:20:50.489Z,101756.18
2019-05-22T11:23:50.584Z,101748.65
2019-05-22T11:26:21.232Z,101755.55
2019-05-22T11:29:06.277Z,101733.02
2019-05-22T11:31:52.158Z,101732.70
2019-05-22T11:34:24.859Z,101749.61
2019-05-22T11:37:08.575Z,101750.53
2019-05-22T11:39:53.016Z,101753.43
2019-05-22T11:45:52.267Z,101742.70
2019-05-22T11:48:36.108Z,101760.55
2019-05-22T11:51:21.790Z,101764.89
2019-05-22T11:54:09.638Z,101764.39
2019-05-22T11:56:55.075Z,101746.50
2019-05-22T11:59:39.572Z,101772.98
2019-05-22T12:02:25.008Z,101747.30
2019-05-22T12:05:10.608Z,101758.58
2019-05-22T12:07:54.765Z,101759.13
2019-05-22T12:10:39.140Z,101759.08
2019-05-22T12:13:23.213Z,101781.26
2019-05-22T12:16:07.944Z,101766.20
2019-05-22T12:18:52.392Z,101784.16
2019-05-22T12:21:36.982Z,101778.30
2019-05-22T12:24:28.004Z,101784.61
2019-05-22T12:27:09.893Z,101782.66
2019-05-22T12:29:53.887Z,101769.39
2019-05-22T12:32:38.433Z,101788.00
2019-05-22T12:35:23.137Z,101791.08
2019-05-22T12:38:07.628Z,101787.88
2019-05-22T12:40:53.759Z,101782.52
2019-05-22T12:43:38.013Z,101768.95
2019-05-22T12:46:22.419Z,101755.42
2019-05-22T12:49:08.928Z,101778.94
2019-05-22T12:51:53.419Z,101755.92
2019-05-22T12:54:47.215Z,101762.86
2019-05-22T12:57:24.269Z,101757.45
2019-05-22T13:00:09.783Z,101765.72
2019-05-22T13:02:53.735Z,101784.98
2019-05-22T13:05:39.296Z,101759.34
2019-05-22T13:08:24.475Z,101785.74
2019-05-22T13:11:08.437Z,101775.44
2019-05-22T13:13:53.611Z,101756.19
2019-05-22T13:16:37.757Z,101788.77
2019-05-22T13:19:22.525Z,101787.66
2019-05-22T13:22:08.842Z,101769.94
2019-05-22T13:24:53.789Z,101771.34
2019-05-22T13:27:37.867Z,101787.98
2019-05-22T13:30:22.813Z,101771.57
2019-05-22T13:36:09.929Z,101782.28
2019-05-22T13:38:58.313Z,101784.55
2019-05-22T13:41:42.277Z,101789.03
2019-05-22T13:44:26.433Z,101802.23
2019-05-22T13:47:11.938Z,101795.23
2019-05-22T13:49:57.275Z,101804.42
2019-05-22T13:52:41.329Z,101788.33
2019-05-22T13:55:31.508Z,101793.51
2019-05-22T13:58:15.809Z,101811.56
2019-05-22T14:01:00.286Z,101793.98
2019-05-22T14:03:44.515Z,101801.88
2019-05-22T14:06:29.088Z,101824.96
2019-05-22T14:09:13.952Z,101802.67
2019-05-22T14:11:58.485Z,101805.80
2019-05-22T14:14:42.257Z,101826.40
2019-05-22T14:17:26.236Z,101805.19
2019-05-22T14:20:10.374Z,101802.74
2019-05-22T14:22:54.503Z,101822.54
2019-05-22T14:25:38.786Z,101830.27
2019-05-22T14:28:23.870Z,101827.54
2019-05-22T14:31:08.503Z,101823.12
2019-05-22T14:33:52.716Z,101821.63
2019-05-22T14:36:37.004Z,101815.39
2019-05-22T14:39:25.663Z,101798.30
2019-05-22T14:42:09.561Z,101823.16
2019-05-22T14:44:53.273Z,101817.99
2019-05-22T14:47:37.630Z,101804.78
2019-05-22T14:50:22.072Z,101831.73
2019-05-22T14:53:06.509Z,101836.50
2019-05-22T14:55:50.898Z,101834.14
2019-05-22T14:58:34.851Z,101821.92
2019-05-22T15:01:18.695Z,101809.44
2019-05-22T15:04:02.873Z,101805.02
2019-05-22T15:06:47.198Z,101808.31
2019-05-22T15:09:31.354Z,101811.20
2019-05-22T15:12:15.094Z,101805.16
2019-05-22T15:14:59.216Z,101827.23
2019-05-22T15:17:43.643Z,101804.13
2019-05-22T15:23:31.208Z,101805.22
2019-05-22T15:26:43.489Z,101823.72
2019-05-22T15:29:27.568Z,101811.25
2019-05-22T15:32:14.053Z,101830.25
2019-05-22T15:38:03.460Z,101839.61
2019-05-22T15:40:48.145Z,101811.02
2019-05-22T15:43:32.781Z,101800.22
2019-05-22T15:46:20.386Z,101828.31
2019-05-22T15:49:05.166Z,101804.43
2019-05-22T15:54:53.445Z,101827.48
2019-05-22T15:57:40.359Z,101828.43
2019-05-22T16:00:28.463Z,101809.95
2019-05-22T16:03:40.753Z,101838.68
2019-05-22T16:06:25.377Z,101816.20
2019-05-22T16:09:13.378Z,101828.55
2019-05-22T16:11:57.158Z,101808.61
2019-05-22T16:14:41.147Z,101828.61
2019-05-22T16:17:25.628Z,101803.02
2019-05-22T16:20:12.198Z,101826.85
2019-05-22T16:22:45.758Z,101825.32
2019-05-22T16:25:32.334Z,101811.22
2019-05-22T16:28:17.170Z,101810.48
2019-05-22T16:31:00.927Z,101836.84
2019-05-22T16:33:45.232Z,101810.05
2019-05-22T16:36:29.583Z,101814.67
2019-05-22T16:39:13.768Z,101814.77
2019-05-22T16:41:58.900Z,101841.56
2019-05-22T16:44:44.890Z,101826.59
2019-05-22T16:47:33.485Z,101825.05
2019-05-22T16:50:18.943Z,101823.72
2019-05-22T16:53:04.778Z,101823.73
2019-05-22T16:55:49.971Z,101833.94
2019-05-22T16:58:35.893Z,101846.61
2019-05-22T17:01:21.397Z,101835.29
2019-05-22T17:04:05.310Z,101828.35
2019-05-22T17:06:49.269Z,101828.39
2019-05-22T17:09:33.775Z,101827.88
2019-05-22T17:12:18.304Z,101841.28
2019-05-22T17:15:02.617Z,101853.23
2019-05-22T17:17:47.204Z,101827.34
2019-05-22T17:20:32.330Z,101851.45
2019-05-22T17:23:16.919Z,101834.48
2019-05-22T17:26:00.695Z,101851.09
2019-05-22T17:28:46.535Z,101828.75
2019-05-22T17:31:31.120Z,101855.02
2019-05-22T17:34:35.131Z,101837.30
2019-05-22T17:37:21.609Z,101848.31
2019-05-22T17:40:06.982Z,101835.61
2019-05-22T17:45:56.908Z,101866.69
2019-05-22T17:48:42.003Z,101844.25
2019-05-22T17:51:25.598Z,101860.64
2019-05-22T17:54:09.976Z,101849.34
2019-05-22T17:56:56.123Z,101849.14
2019-05-22T17:59:41.228Z,101848.60
2019-05-22T18:05:27.027Z,101855.94
2019-05-22T18:08:11.701Z,101870.58
2019-05-22T18:10:56.947Z,101848.11
2019-05-22T18:16:52.589Z,101871.92
2019-05-22T18:19:36.833Z,101846.17
2019-05-22T18:22:20.891Z,101870.61
2019-05-22T18:25:06.367Z,101854.97
2019-05-22T18:27:51.223Z,101878.53
2019-05-22T18:30:38.470Z,101848.75
2019-05-22T18:33:23.086Z,101851.98
2019-05-22T18:36:07.968Z,101845.92
2019-05-22T18:38:53.020Z,101841.00
2019-05-22T18:41:37.812Z,101851.93
2019-05-22T18:44:22.071Z,101852.20
2019-05-22T18:47:06.046Z,101879.14
2019-05-22T18:49:49.917Z,101854.25
2019-05-22T18:52:41.172Z,101855.20
2019-05-22T18:55:20.808Z,101868.62
2019-05-22T18:58:05.955Z,101855.50
2019-05-22T19:00:50.140Z,101859.33
2019-05-22T19:03:35.715Z,101855.42
2019-05-22T19:06:30.428Z,101883.81
2019-05-22T19:09:07.578Z,101864.44
2019-05-22T19:11:53.079Z,101888.61
2019-05-22T19:14:38.276Z,101893.71
2019-05-22T19:17:22.807Z,101875.95
2019-05-22T19:20:08.151Z,101871.89
2019-05-22T19:23:00.527Z,101881.27
2019-05-22T19:25:38.296Z,101902.34
2019-05-22T19:28:22.803Z,101887.66
2019-05-22T19:31:06.715Z,101882.19
2019-05-22T19:33:51.102Z,101880.06
2019-05-22T19:36:37.342Z,101884.70
2019-05-22T19:39:23.446Z,101910.44
2019-05-22T19:42:10.287Z,101887.98
2019-05-22T19:44:56.749Z,101918.69
2019-05-22T19:47:31.147Z,101910.89
2019-05-22T19:50:23.223Z,101888.42
2019-05-22T19:53:18.096Z,101915.35
2019-05-22T19:55:53.376Z,101896.45
2019-05-22T19:58:39.861Z,101897.13
2019-05-22T20:01:27.840Z,101923.48
2019-05-22T20:04:13.690Z,101904.77
2019-05-22T20:06:58.421Z,101924.36
2019-05-22T20:09:42.676Z,101895.16
2019-05-22T20:12:27.203Z,101917.72
2019-05-22T20:15:13.561Z,101900.14
2019-05-22T20:17:58.730Z,101898.52
2019-05-22T20:20:43.768Z,101910.41
2019-05-22T20:23:36.279Z,101898.70
2019-05-22T20:26:14.749Z,101896.23
2019-05-22T20:28:58.972Z,101910.98
2019-05-22T20:31:43.211Z,101895.34
2019-05-22T20:34:27.617Z,101884.05
2019-05-22T20:37:11.561Z,101906.41
2019-05-22T20:39:55.739Z,101888.05
2019-05-22T20:42:39.716Z,101907.27
2019-05-22T20:48:12.321Z,101893.30
2019-05-22T20:50:57.062Z,101912.38
2019-05-22T20:53:53.766Z,101912.29
2019-05-22T20:56:29.682Z,101913.30
2019-05-22T20:59:14.846Z,101892.27
2019-05-22T21:01:58.767Z,101892.62
2019-05-22T21:04:43.986Z,101917.93
2019-05-22T21:07:33.246Z,101918.42
2019-05-22T21:10:25.908Z,101897.13
2019-05-22T21:13:11.679Z,101922.72
2019-05-22T21:15:56.056Z,101925.70
2019-05-22T21:21:50.384Z,101926.55
2019-05-22T21:24:36.489Z,101928.70
2019-05-22T21:27:21.405Z,101929.70
2019-05-22T21:30:05.301Z,101922.22
2019-05-22T21:32:50.240Z,101932.84
2019-05-22T21:35:35.330Z,101932.67
2019-05-22T21:38:21.616Z,101903.17
2019-05-22T21:41:06.420Z,101932.53
2019-05-22T21:43:50.816Z,101930.94
2019-05-22T21:46:36.097Z,101923.27
2019-05-22T21:49:21.052Z,101909.56
2019-05-22T21:52:06.426Z,101926.68
2019-05-22T21:54:51.495Z,101913.17
2019-05-22T21:57:35.662Z,101932.78
2019-05-22T22:03:36.715Z,101933.12
2019-05-22T22:06:21.437Z,101931.95
2019-05-22T22:09:08.973Z,101932.27
2019-05-22T22:11:54.514Z,101914.34
2019-05-22T22:14:40.097Z,101937.36
2019-05-22T22:17:27.041Z,101938.21
2019-05-22T22:20:12.995Z,101942.47
2019-05-22T22:22:58.957Z,101947.36
2019-05-22T22:25:43.756Z,101944.91
2019-05-22T22:28:27.824Z,101954.88
2019-05-22T22:31:14.178Z,101952.09
2019-05-22T22:34:01.353Z,101935.92
2019-05-22T22:36:45.918Z,101943.11
2019-05-22T22:39:32.765Z,101959.27
2019-05-22T22:42:18.164Z,101962.90
2019-05-22T22:48:06.033Z,101946.06
2019-05-22T22:50:50.070Z,101963.52
2019-05-22T22:53:35.769Z,101941.33
2019-05-22T22:56:22.285Z,101943.27
2019-05-22T22:59:07.247Z,101968.09
2019-05-22T23:01:53.693Z,101970.87
2019-05-22T23:04:38.728Z,101942.16
2019-05-22T23:07:23.812Z,101967.77
2019-05-22T23:10:09.647Z,101949.16
2019-05-22T23:12:54.598Z,101968.41
2019-05-22T23:15:40.284Z,101964.67
2019-05-22T23:18:49.945Z,101946.39
2019-05-22T23:21:36.309Z,101936.58
2019-05-22T23:24:20.767Z,101938.55
2019-05-22T23:27:06.943Z,101963.84
2019-05-22T23:29:51.666Z,101940.98
2019-05-22T23:32:36.484Z,101937.55
2019-05-22T23:35:21.192Z,101930.86
2019-05-22T23:38:05.892Z,101937.06
2019-05-22T23:40:52.930Z,101958.13
2019-05-22T23:43:36.908Z,101935.25
2019-05-22T23:46:20.749Z,101930.50
2019-05-22T23:49:05.193Z,101929.52
2019-05-22T23:51:49.349Z,101930.83
2019-05-22T23:54:33.993Z,101947.19
2019-05-22T23:57:18.599Z,101922.17
